sensor_id;sensor_type;location;lat;lon;timestamp;P1;durP1;ratioP1;P2;durP2;ratioP2
15393;SDS011;7795;47.986;11.868;2022-10-16T00:01:03;1.80;;;0.90;;
15393;SDS011;7795;47.986;11.868;2022-10-16T00:03:30;3.03;;;1.40;;
15393;SDS011;7795;47.986;11.868;2022-10-16T00:05:58;1.37;;;0.97;;
15393;SDS011;7795;47.986;11.868;2022-10-16T00:08:25;1.37;;;1.03;;
15393;SDS011;7795;47.986;11.868;2022-10-16T00:10:51;1.43;;;0.90;;
15393;SDS011;7795;47.986;11.868;2022-10-16T00:13:16;3.37;;;1.20;;
15393;SDS011;7795;47.986;11.868;2022-10-16T00:15:45;7.03;;;1.10;;
15393;SDS011;7795;47.986;11.868;2022-10-16T00:18:11;0.90;;;0.90;;
15393;SDS011;7795;47.986;11.868;2022-10-16T00:20:39;1.43;;;0.90;;
15393;SDS011;7795;47.986;11.868;2022-10-16T00:23:05;0.87;;;0.80;;
15393;SDS011;7795;47.986;11.868;2022-10-16T00:25:31;0.87;;;0.87;;
15393;SDS011;7795;47.986;11.868;2022-10-16T00:27:57;1.13;;;0.83;;
15393;SDS011;7795;47.986;11.868;2022-10-16T00:30:23;0.80;;;0.80;;
15393;SDS011;7795;47.986;11.868;2022-10-16T00:32:50;0.60;;;0.60;;
15393;SDS011;7795;47.986;11.868;2022-10-16T00:35:16;1.60;;;0.83;;
15393;SDS011;7795;47.986;11.868;2022-10-16T00:37:42;1.13;;;1.00;;
15393;SDS011;7795;47.986;11.868;2022-10-16T00:40:08;1.30;;;0.80;;
15393;SDS011;7795;47.986;11.868;2022-10-16T00:42:35;0.70;;;0.70;;
15393;SDS011;7795;47.986;11.868;2022-10-16T00:45:01;0.80;;;0.70;;
15393;SDS011;7795;47.986;11.868;2022-10-16T00:47:27;1.30;;;0.67;;
15393;SDS011;7795;47.986;11.868;2022-10-16T00:49:59;0.70;;;0.70;;
15393;SDS011;7795;47.986;11.868;2022-10-16T00:52:27;2.03;;;0.80;;
15393;SDS011;7795;47.986;11.868;2022-10-16T00:54:53;0.60;;;0.60;;
15393;SDS011;7795;47.986;11.868;2022-10-16T00:57:20;1.57;;;0.60;;
15393;SDS011;7795;47.986;11.868;2022-10-16T00:59:46;0.97;;;0.67;;
15393;SDS011;7795;47.986;11.868;2022-10-16T01:02:13;1.10;;;0.90;;
15393;SDS011;7795;47.986;11.868;2022-10-16T01:04:42;0.80;;;0.80;;
15393;SDS011;7795;47.986;11.868;2022-10-16T01:07:12;0.93;;;0.90;;
15393;SDS011;7795;47.986;11.868;2022-10-16T01:09:51;0.80;;;0.80;;
15393;SDS011;7795;47.986;11.868;2022-10-16T01:12:27;1.73;;;1.33;;
15393;SDS011;7795;47.986;11.868;2022-10-16T01:15:02;5.63;;;1.50;;
15393;SDS011;7795;47.986;11.868;2022-10-16T01:17:38;3.20;;;1.30;;
15393;SDS011;7795;47.986;11.868;2022-10-16T01:20:11;3.20;;;1.50;;
15393;SDS011;7795;47.986;11.868;2022-10-16T01:22:50;3.33;;;1.40;;
15393;SDS011;7795;47.986;11.868;2022-10-16T01:25:29;2.37;;;1.33;;
15393;SDS011;7795;47.986;11.868;2022-10-16T01:28:14;2.87;;;1.67;;
15393;SDS011;7795;47.986;11.868;2022-10-16T01:30:42;2.00;;;1.37;;
15393;SDS011;7795;47.986;11.868;2022-10-16T01:33:12;2.37;;;1.30;;
15393;SDS011;7795;47.986;11.868;2022-10-16T01:35:42;1.40;;;1.27;;
15393;SDS011;7795;47.986;11.868;2022-10-16T01:38:12;1.63;;;1.00;;
15393;SDS011;7795;47.986;11.868;2022-10-16T01:40:44;1.30;;;0.90;;
15393;SDS011;7795;47.986;11.868;2022-10-16T01:43:14;0.80;;;0.80;;
15393;SDS011;7795;47.986;11.868;2022-10-16T01:45:44;5.40;;;1.03;;
15393;SDS011;7795;47.986;11.868;2022-10-16T01:48:11;1.20;;;0.87;;
15393;SDS011;7795;47.986;11.868;2022-10-16T01:50:39;0.73;;;0.70;;
15393;SDS011;7795;47.986;11.868;2022-10-16T01:53:08;1.97;;;0.90;;
15393;SDS011;7795;47.986;11.868;2022-10-16T01:55:38;2.10;;;0.87;;
15393;SDS011;7795;47.986;11.868;2022-10-16T01:58:09;1.97;;;0.70;;
15393;SDS011;7795;47.986;11.868;2022-10-16T02:00:39;1.27;;;0.80;;
15393;SDS011;7795;47.986;11.868;2022-10-16T02:03:08;1.00;;;0.90;;
15393;SDS011;7795;47.986;11.868;2022-10-16T02:05:38;2.63;;;0.80;;
15393;SDS011;7795;47.986;11.868;2022-10-16T02:08:06;0.73;;;0.73;;
15393;SDS011;7795;47.986;11.868;2022-10-16T02:10:32;1.13;;;0.73;;
15393;SDS011;7795;47.986;11.868;2022-10-16T02:13:00;0.83;;;0.77;;
15393;SDS011;7795;47.986;11.868;2022-10-16T02:15:31;0.80;;;0.70;;
15393;SDS011;7795;47.986;11.868;2022-10-16T02:17:58;1.10;;;0.60;;
15393;SDS011;7795;47.986;11.868;2022-10-16T02:20:25;1.00;;;0.70;;
15393;SDS011;7795;47.986;11.868;2022-10-16T02:22:53;1.83;;;0.80;;
15393;SDS011;7795;47.986;11.868;2022-10-16T02:25:22;0.93;;;0.80;;
15393;SDS011;7795;47.986;11.868;2022-10-16T02:27:51;1.30;;;0.73;;
15393;SDS011;7795;47.986;11.868;2022-10-16T02:30:21;3.23;;;0.80;;
15393;SDS011;7795;47.986;11.868;2022-10-16T02:32:51;0.83;;;0.70;;
15393;SDS011;7795;47.986;11.868;2022-10-16T02:35:19;1.37;;;0.70;;
15393;SDS011;7795;47.986;11.868;2022-10-16T02:37:46;1.57;;;0.90;;
15393;SDS011;7795;47.986;11.868;2022-10-16T02:40:13;0.70;;;0.50;;
15393;SDS011;7795;47.986;11.868;2022-10-16T02:42:40;0.67;;;0.67;;
15393;SDS011;7795;47.986;11.868;2022-10-16T02:45:07;0.60;;;0.60;;
15393;SDS011;7795;47.986;11.868;2022-10-16T02:47:34;0.70;;;0.70;;
15393;SDS011;7795;47.986;11.868;2022-10-16T02:49:59;0.67;;;0.57;;
15393;SDS011;7795;47.986;11.868;2022-10-16T02:52:26;2.13;;;0.57;;
15393;SDS011;7795;47.986;11.868;2022-10-16T02:54:52;0.70;;;0.70;;
15393;SDS011;7795;47.986;11.868;2022-10-16T02:57:18;0.60;;;0.60;;
15393;SDS011;7795;47.986;11.868;2022-10-16T02:59:44;0.37;;;0.37;;
15393;SDS011;7795;47.986;11.868;2022-10-16T03:02:10;1.43;;;0.60;;
15393;SDS011;7795;47.986;11.868;2022-10-16T03:04:36;0.50;;;0.50;;
15393;SDS011;7795;47.986;11.868;2022-10-16T03:07:02;1.60;;;0.50;;
15393;SDS011;7795;47.986;11.868;2022-10-16T03:09:29;0.33;;;0.33;;
15393;SDS011;7795;47.986;11.868;2022-10-16T03:11:54;0.57;;;0.57;;
15393;SDS011;7795;47.986;11.868;2022-10-16T03:14:20;1.53;;;1.10;;
15393;SDS011;7795;47.986;11.868;2022-10-16T03:16:46;0.60;;;0.60;;
15393;SDS011;7795;47.986;11.868;2022-10-16T03:19:12;1.57;;;0.60;;
15393;SDS011;7795;47.986;11.868;2022-10-16T03:21:38;1.07;;;0.70;;
15393;SDS011;7795;47.986;11.868;2022-10-16T03:24:04;1.13;;;0.63;;
15393;SDS011;7795;47.986;11.868;2022-10-16T03:26:31;0.70;;;0.70;;
15393;SDS011;7795;47.986;11.868;2022-10-16T03:28:57;2.00;;;0.60;;
15393;SDS011;7795;47.986;11.868;2022-10-16T03:31:23;1.20;;;0.70;;
15393;SDS011;7795;47.986;11.868;2022-10-16T03:33:48;0.83;;;0.70;;
15393;SDS011;7795;47.986;11.868;2022-10-16T03:36:14;0.77;;;0.60;;
15393;SDS011;7795;47.986;11.868;2022-10-16T03:38:40;1.23;;;0.60;;
15393;SDS011;7795;47.986;11.868;2022-10-16T03:41:05;4.00;;;0.70;;
15393;SDS011;7795;47.986;11.868;2022-10-16T03:43:34;0.53;;;0.53;;
15393;SDS011;7795;47.986;11.868;2022-10-16T03:45:59;0.77;;;0.50;;
15393;SDS011;7795;47.986;11.868;2022-10-16T03:48:25;0.70;;;0.70;;
15393;SDS011;7795;47.986;11.868;2022-10-16T03:50:51;0.60;;;0.60;;
15393;SDS011;7795;47.986;11.868;2022-10-16T03:53:16;0.60;;;0.60;;
15393;SDS011;7795;47.986;11.868;2022-10-16T03:55:43;1.20;;;0.50;;
15393;SDS011;7795;47.986;11.868;2022-10-16T03:58:09;0.83;;;0.70;;
15393;SDS011;7795;47.986;11.868;2022-10-16T04:00:36;0.60;;;0.60;;
15393;SDS011;7795;47.986;11.868;2022-10-16T04:03:05;0.70;;;0.70;;
15393;SDS011;7795;47.986;11.868;2022-10-16T04:05:31;1.13;;;0.60;;
15393;SDS011;7795;47.986;11.868;2022-10-16T04:07:56;2.70;;;0.90;;
15393;SDS011;7795;47.986;11.868;2022-10-16T04:10:22;0.60;;;0.60;;
15393;SDS011;7795;47.986;11.868;2022-10-16T04:12:48;0.80;;;0.60;;
15393;SDS011;7795;47.986;11.868;2022-10-16T04:15:14;0.83;;;0.60;;
15393;SDS011;7795;47.986;11.868;2022-10-16T04:17:41;0.63;;;0.60;;
15393;SDS011;7795;47.986;11.868;2022-10-16T04:20:07;0.60;;;0.60;;
15393;SDS011;7795;47.986;11.868;2022-10-16T04:22:33;1.30;;;0.87;;
15393;SDS011;7795;47.986;11.868;2022-10-16T04:24:59;0.60;;;0.60;;
15393;SDS011;7795;47.986;11.868;2022-10-16T04:27:24;0.70;;;0.70;;
15393;SDS011;7795;47.986;11.868;2022-10-16T04:29:50;1.07;;;0.60;;
15393;SDS011;7795;47.986;11.868;2022-10-16T04:32:16;0.83;;;0.60;;
15393;SDS011;7795;47.986;11.868;2022-10-16T04:34:43;1.63;;;0.80;;
15393;SDS011;7795;47.986;11.868;2022-10-16T04:37:09;0.60;;;0.60;;
15393;SDS011;7795;47.986;11.868;2022-10-16T04:39:34;1.47;;;0.60;;
15393;SDS011;7795;47.986;11.868;2022-10-16T04:42:00;0.57;;;0.57;;
15393;SDS011;7795;47.986;11.868;2022-10-16T04:44:26;1.37;;;0.80;;
15393;SDS011;7795;47.986;11.868;2022-10-16T04:46:51;3.83;;;1.03;;
15393;SDS011;7795;47.986;11.868;2022-10-16T04:49:17;2.50;;;0.90;;
15393;SDS011;7795;47.986;11.868;2022-10-16T04:51:44;1.97;;;1.20;;
15393;SDS011;7795;47.986;11.868;2022-10-16T04:54:10;2.37;;;1.10;;
15393;SDS011;7795;47.986;11.868;2022-10-16T04:56:36;2.10;;;1.03;;
15393;SDS011;7795;47.986;11.868;2022-10-16T04:59:08;4.20;;;1.40;;
15393;SDS011;7795;47.986;11.868;2022-10-16T05:01:34;3.93;;;1.30;;
15393;SDS011;7795;47.986;11.868;2022-10-16T05:04:00;2.47;;;1.30;;
15393;SDS011;7795;47.986;11.868;2022-10-16T05:06:26;1.73;;;1.10;;
15393;SDS011;7795;47.986;11.868;2022-10-16T05:08:53;1.07;;;0.97;;
15393;SDS011;7795;47.986;11.868;2022-10-16T05:11:19;3.00;;;0.90;;
15393;SDS011;7795;47.986;11.868;2022-10-16T05:13:45;2.70;;;1.10;;
15393;SDS011;7795;47.986;11.868;2022-10-16T05:16:10;4.40;;;1.30;;
15393;SDS011;7795;47.986;11.868;2022-10-16T05:18:36;2.97;;;1.47;;
15393;SDS011;7795;47.986;11.868;2022-10-16T05:21:02;2.60;;;1.30;;
15393;SDS011;7795;47.986;11.868;2022-10-16T05:23:28;1.93;;;1.40;;
15393;SDS011;7795;47.986;11.868;2022-10-16T05:25:55;2.47;;;1.90;;
15393;SDS011;7795;47.986;11.868;2022-10-16T05:28:23;3.13;;;2.23;;
15393;SDS011;7795;47.986;11.868;2022-10-16T05:30:50;3.23;;;2.10;;
15393;SDS011;7795;47.986;11.868;2022-10-16T05:33:15;2.77;;;2.07;;
15393;SDS011;7795;47.986;11.868;2022-10-16T05:35:41;2.23;;;1.80;;
15393;SDS011;7795;47.986;11.868;2022-10-16T05:38:07;3.40;;;2.03;;
15393;SDS011;7795;47.986;11.868;2022-10-16T05:40:33;2.93;;;1.50;;
15393;SDS011;7795;47.986;11.868;2022-10-16T05:43:00;2.50;;;1.30;;
15393;SDS011;7795;47.986;11.868;2022-10-16T05:45:26;2.57;;;1.10;;
15393;SDS011;7795;47.986;11.868;2022-10-16T05:47:52;6.90;;;1.30;;
15393;SDS011;7795;47.986;11.868;2022-10-16T05:50:17;1.53;;;1.20;;
15393;SDS011;7795;47.986;11.868;2022-10-16T05:52:43;3.37;;;1.00;;
15393;SDS011;7795;47.986;11.868;2022-10-16T05:55:09;1.10;;;1.00;;
15393;SDS011;7795;47.986;11.868;2022-10-16T05:57:35;2.60;;;1.10;;
15393;SDS011;7795;47.986;11.868;2022-10-16T06:00:02;2.00;;;1.20;;
15393;SDS011;7795;47.986;11.868;2022-10-16T06:02:28;2.33;;;1.10;;
15393;SDS011;7795;47.986;11.868;2022-10-16T06:04:54;5.37;;;1.60;;
15393;SDS011;7795;47.986;11.868;2022-10-16T06:07:20;1.97;;;1.27;;
15393;SDS011;7795;47.986;11.868;2022-10-16T06:09:47;2.97;;;2.00;;
15393;SDS011;7795;47.986;11.868;2022-10-16T06:12:13;3.20;;;1.53;;
15393;SDS011;7795;47.986;11.868;2022-10-16T06:14:39;2.63;;;1.50;;
15393;SDS011;7795;47.986;11.868;2022-10-16T06:17:06;3.77;;;1.13;;
15393;SDS011;7795;47.986;11.868;2022-10-16T06:19:32;1.03;;;0.93;;
15393;SDS011;7795;47.986;11.868;2022-10-16T06:21:57;1.93;;;1.60;;
15393;SDS011;7795;47.986;11.868;2022-10-16T06:24:23;2.77;;;1.50;;
15393;SDS011;7795;47.986;11.868;2022-10-16T06:26:49;2.37;;;1.60;;
15393;SDS011;7795;47.986;11.868;2022-10-16T06:29:15;1.97;;;1.40;;
15393;SDS011;7795;47.986;11.868;2022-10-16T06:31:41;2.07;;;1.77;;
15393;SDS011;7795;47.986;11.868;2022-10-16T06:34:09;4.07;;;1.73;;
15393;SDS011;7795;47.986;11.868;2022-10-16T06:36:36;2.10;;;1.90;;
15393;SDS011;7795;47.986;11.868;2022-10-16T06:39:02;3.37;;;1.70;;
15393;SDS011;7795;47.986;11.868;2022-10-16T06:41:28;2.57;;;1.50;;
15393;SDS011;7795;47.986;11.868;2022-10-16T06:43:54;2.70;;;1.27;;
15393;SDS011;7795;47.986;11.868;2022-10-16T06:46:21;4.10;;;2.10;;
15393;SDS011;7795;47.986;11.868;2022-10-16T06:48:48;3.03;;;2.00;;
15393;SDS011;7795;47.986;11.868;2022-10-16T06:51:16;5.57;;;2.40;;
15393;SDS011;7795;47.986;11.868;2022-10-16T06:53:43;4.50;;;2.63;;
15393;SDS011;7795;47.986;11.868;2022-10-16T06:56:11;4.67;;;2.40;;
15393;SDS011;7795;47.986;11.868;2022-10-16T06:58:38;2.37;;;2.17;;
15393;SDS011;7795;47.986;11.868;2022-10-16T07:01:04;4.77;;;2.50;;
15393;SDS011;7795;47.986;11.868;2022-10-16T07:03:30;7.73;;;2.57;;
15393;SDS011;7795;47.986;11.868;2022-10-16T07:05:56;3.30;;;2.17;;
15393;SDS011;7795;47.986;11.868;2022-10-16T07:08:27;3.33;;;2.20;;
15393;SDS011;7795;47.986;11.868;2022-10-16T07:10:59;2.37;;;2.17;;
15393;SDS011;7795;47.986;11.868;2022-10-16T07:13:25;3.57;;;1.93;;
15393;SDS011;7795;47.986;11.868;2022-10-16T07:15:50;2.53;;;1.90;;
15393;SDS011;7795;47.986;11.868;2022-10-16T07:18:16;2.40;;;2.20;;
15393;SDS011;7795;47.986;11.868;2022-10-16T07:20:42;2.47;;;2.27;;
15393;SDS011;7795;47.986;11.868;2022-10-16T07:23:07;4.63;;;2.30;;
15393;SDS011;7795;47.986;11.868;2022-10-16T07:25:34;2.60;;;2.40;;
15393;SDS011;7795;47.986;11.868;2022-10-16T07:28:00;3.93;;;2.10;;
15393;SDS011;7795;47.986;11.868;2022-10-16T07:30:26;2.20;;;1.97;;
15393;SDS011;7795;47.986;11.868;2022-10-16T07:32:52;2.40;;;1.43;;
15393;SDS011;7795;47.986;11.868;2022-10-16T07:35:17;2.90;;;1.43;;
15393;SDS011;7795;47.986;11.868;2022-10-16T07:37:44;4.77;;;1.83;;
15393;SDS011;7795;47.986;11.868;2022-10-16T07:40:10;7.77;;;2.20;;
15393;SDS011;7795;47.986;11.868;2022-10-16T07:42:37;4.07;;;2.33;;
15393;SDS011;7795;47.986;11.868;2022-10-16T07:45:03;3.73;;;1.97;;
15393;SDS011;7795;47.986;11.868;2022-10-16T07:47:30;2.83;;;2.10;;
15393;SDS011;7795;47.986;11.868;2022-10-16T07:49:55;4.03;;;2.17;;
15393;SDS011;7795;47.986;11.868;2022-10-16T07:52:21;4.60;;;2.37;;
15393;SDS011;7795;47.986;11.868;2022-10-16T07:54:47;2.57;;;2.17;;
15393;SDS011;7795;47.986;11.868;2022-10-16T07:57:12;2.87;;;2.17;;
15393;SDS011;7795;47.986;11.868;2022-10-16T07:59:45;3.47;;;1.90;;
15393;SDS011;7795;47.986;11.868;2022-10-16T08:02:11;3.53;;;2.07;;
15393;SDS011;7795;47.986;11.868;2022-10-16T08:04:37;5.03;;;2.60;;
15393;SDS011;7795;47.986;11.868;2022-10-16T08:07:03;4.33;;;2.70;;
15393;SDS011;7795;47.986;11.868;2022-10-16T08:09:28;6.37;;;3.63;;
15393;SDS011;7795;47.986;11.868;2022-10-16T08:11:54;9.63;;;5.07;;
15393;SDS011;7795;47.986;11.868;2022-10-16T08:14:20;59.17;;;34.40;;
15393;SDS011;7795;47.986;11.868;2022-10-16T08:16:47;115.07;;;61.93;;
15393;SDS011;7795;47.986;11.868;2022-10-16T08:19:13;182.63;;;92.83;;
15393;SDS011;7795;47.986;11.868;2022-10-16T08:21:40;210.60;;;107.47;;
15393;SDS011;7795;47.986;11.868;2022-10-16T08:24:06;177.93;;;93.87;;
15393;SDS011;7795;47.986;11.868;2022-10-16T08:26:31;145.17;;;74.43;;
15393;SDS011;7795;47.986;11.868;2022-10-16T08:28:57;117.53;;;60.73;;
15393;SDS011;7795;47.986;11.868;2022-10-16T08:31:23;113.37;;;56.60;;
15393;SDS011;7795;47.986;11.868;2022-10-16T08:33:50;105.80;;;52.77;;
15393;SDS011;7795;47.986;11.868;2022-10-16T08:36:17;89.07;;;46.53;;
15393;SDS011;7795;47.986;11.868;2022-10-16T08:38:43;94.83;;;51.07;;
15393;SDS011;7795;47.986;11.868;2022-10-16T08:41:16;100.50;;;51.53;;
15393;SDS011;7795;47.986;11.868;2022-10-16T08:44:03;89.07;;;45.00;;
15393;SDS011;7795;47.986;11.868;2022-10-16T08:46:43;58.57;;;29.50;;
15393;SDS011;7795;47.986;11.868;2022-10-16T08:49:18;38.23;;;21.27;;
15393;SDS011;7795;47.986;11.868;2022-10-16T08:51:44;33.30;;;18.73;;
15393;SDS011;7795;47.986;11.868;2022-10-16T08:54:15;41.30;;;22.00;;
15393;SDS011;7795;47.986;11.868;2022-10-16T08:56:48;30.57;;;16.40;;
15393;SDS011;7795;47.986;11.868;2022-10-16T08:59:14;25.40;;;12.57;;
15393;SDS011;7795;47.986;11.868;2022-10-16T09:01:42;24.87;;;14.13;;
15393;SDS011;7795;47.986;11.868;2022-10-16T09:04:26;31.77;;;17.30;;
15393;SDS011;7795;47.986;11.868;2022-10-16T09:07:09;26.83;;;15.50;;
15393;SDS011;7795;47.986;11.868;2022-10-16T09:09:45;24.53;;;13.37;;
15393;SDS011;7795;47.986;11.868;2022-10-16T09:12:25;19.60;;;11.90;;
15393;SDS011;7795;47.986;11.868;2022-10-16T09:14:57;16.87;;;10.37;;
15393;SDS011;7795;47.986;11.868;2022-10-16T09:17:32;20.90;;;11.40;;
15393;SDS011;7795;47.986;11.868;2022-10-16T09:20:12;21.60;;;11.50;;
15393;SDS011;7795;47.986;11.868;2022-10-16T09:22:43;25.07;;;13.10;;
15393;SDS011;7795;47.986;11.868;2022-10-16T09:25:10;28.80;;;14.40;;
15393;SDS011;7795;47.986;11.868;2022-10-16T09:27:38;26.13;;;14.23;;
15393;SDS011;7795;47.986;11.868;2022-10-16T09:30:09;28.90;;;16.07;;
15393;SDS011;7795;47.986;11.868;2022-10-16T09:32:37;35.13;;;19.90;;
15393;SDS011;7795;47.986;11.868;2022-10-16T09:35:04;50.57;;;28.30;;
15393;SDS011;7795;47.986;11.868;2022-10-16T09:37:38;48.00;;;29.17;;
15393;SDS011;7795;47.986;11.868;2022-10-16T09:40:06;45.67;;;23.80;;
15393;SDS011;7795;47.986;11.868;2022-10-16T09:42:36;34.97;;;18.07;;
15393;SDS011;7795;47.986;11.868;2022-10-16T09:45:03;27.10;;;13.97;;
15393;SDS011;7795;47.986;11.868;2022-10-16T09:47:30;18.20;;;10.00;;
15393;SDS011;7795;47.986;11.868;2022-10-16T09:49:57;13.93;;;8.53;;
15393;SDS011;7795;47.986;11.868;2022-10-16T09:52:28;9.97;;;5.97;;
15393;SDS011;7795;47.986;11.868;2022-10-16T09:54:55;15.10;;;7.10;;
15393;SDS011;7795;47.986;11.868;2022-10-16T09:57:22;16.43;;;7.47;;
15393;SDS011;7795;47.986;11.868;2022-10-16T09:59:49;17.23;;;7.57;;
15393;SDS011;7795;47.986;11.868;2022-10-16T10:02:16;16.13;;;7.57;;
15393;SDS011;7795;47.986;11.868;2022-10-16T10:04:47;12.40;;;5.87;;
15393;SDS011;7795;47.986;11.868;2022-10-16T10:07:19;12.67;;;6.27;;
15393;SDS011;7795;47.986;11.868;2022-10-16T10:09:51;14.97;;;7.27;;
15393;SDS011;7795;47.986;11.868;2022-10-16T10:12:19;13.07;;;6.40;;
15393;SDS011;7795;47.986;11.868;2022-10-16T10:14:47;14.77;;;5.50;;
15393;SDS011;7795;47.986;11.868;2022-10-16T10:17:15;10.00;;;4.33;;
15393;SDS011;7795;47.986;11.868;2022-10-16T10:19:44;11.30;;;4.37;;
15393;SDS011;7795;47.986;11.868;2022-10-16T10:22:16;10.90;;;3.63;;
15393;SDS011;7795;47.986;11.868;2022-10-16T10:24:44;9.23;;;3.17;;
15393;SDS011;7795;47.986;11.868;2022-10-16T10:27:20;6.40;;;2.43;;
15393;SDS011;7795;47.986;11.868;2022-10-16T10:29:53;7.73;;;2.87;;
15393;SDS011;7795;47.986;11.868;2022-10-16T10:32:27;7.17;;;3.20;;
15393;SDS011;7795;47.986;11.868;2022-10-16T10:35:13;9.23;;;3.63;;
15393;SDS011;7795;47.986;11.868;2022-10-16T10:37:48;9.47;;;3.03;;
15393;SDS011;7795;47.986;11.868;2022-10-16T10:40:28;11.63;;;4.43;;
15393;SDS011;7795;47.986;11.868;2022-10-16T10:43:05;10.17;;;4.90;;
15393;SDS011;7795;47.986;11.868;2022-10-16T10:45:41;13.77;;;4.83;;
15393;SDS011;7795;47.986;11.868;2022-10-16T10:48:16;11.93;;;3.97;;
15393;SDS011;7795;47.986;11.868;2022-10-16T10:50:48;10.40;;;4.00;;
15393;SDS011;7795;47.986;11.868;2022-10-16T10:53:20;9.20;;;3.47;;
15393;SDS011;7795;47.986;11.868;2022-10-16T10:55:59;9.40;;;3.23;;
15393;SDS011;7795;47.986;11.868;2022-10-16T10:58:53;7.37;;;2.97;;
15393;SDS011;7795;47.986;11.868;2022-10-16T11:01:31;8.20;;;3.67;;
15393;SDS011;7795;47.986;11.868;2022-10-16T11:04:09;8.10;;;4.50;;
15393;SDS011;7795;47.986;11.868;2022-10-16T11:06:55;14.13;;;5.57;;
15393;SDS011;7795;47.986;11.868;2022-10-16T11:09:23;6.77;;;3.70;;
15393;SDS011;7795;47.986;11.868;2022-10-16T11:11:53;7.37;;;3.37;;
15393;SDS011;7795;47.986;11.868;2022-10-16T11:14:26;8.13;;;3.23;;
15393;SDS011;7795;47.986;11.868;2022-10-16T11:16:56;8.07;;;3.40;;
15393;SDS011;7795;47.986;11.868;2022-10-16T11:19:28;9.50;;;3.93;;
15393;SDS011;7795;47.986;11.868;2022-10-16T11:22:03;8.40;;;3.57;;
15393;SDS011;7795;47.986;11.868;2022-10-16T11:24:40;7.70;;;3.30;;
15393;SDS011;7795;47.986;11.868;2022-10-16T11:27:12;8.77;;;2.90;;
15393;SDS011;7795;47.986;11.868;2022-10-16T11:29:44;4.37;;;2.40;;
15393;SDS011;7795;47.986;11.868;2022-10-16T11:32:18;10.07;;;3.20;;
15393;SDS011;7795;47.986;11.868;2022-10-16T11:34:47;4.37;;;2.00;;
15393;SDS011;7795;47.986;11.868;2022-10-16T11:37:17;3.50;;;1.92;;
15393;SDS011;7795;47.986;11.868;2022-10-16T11:39:45;2.67;;;1.77;;
15393;SDS011;7795;47.986;11.868;2022-10-16T11:42:13;2.70;;;1.80;;
15393;SDS011;7795;47.986;11.868;2022-10-16T11:44:48;3.97;;;1.57;;
15393;SDS011;7795;47.986;11.868;2022-10-16T11:47:23;5.80;;;2.17;;
15393;SDS011;7795;47.986;11.868;2022-10-16T11:49:59;6.28;;;2.70;;
15393;SDS011;7795;47.986;11.868;2022-10-16T11:52:30;5.43;;;2.53;;
15393;SDS011;7795;47.986;11.868;2022-10-16T11:55:02;5.23;;;2.23;;
15393;SDS011;7795;47.986;11.868;2022-10-16T11:57:35;3.53;;;1.70;;
15393;SDS011;7795;47.986;11.868;2022-10-16T12:00:09;1.92;;;1.27;;
15393;SDS011;7795;47.986;11.868;2022-10-16T12:02:48;2.53;;;1.20;;
15393;SDS011;7795;47.986;11.868;2022-10-16T12:05:23;1.90;;;1.00;;
15393;SDS011;7795;47.986;11.868;2022-10-16T12:07:56;4.50;;;1.30;;
15393;SDS011;7795;47.986;11.868;2022-10-16T12:10:30;1.23;;;1.02;;
15393;SDS011;7795;47.986;11.868;2022-10-16T12:12:57;2.22;;;1.38;;
15393;SDS011;7795;47.986;11.868;2022-10-16T12:15:25;3.58;;;1.33;;
15393;SDS011;7795;47.986;11.868;2022-10-16T12:17:52;1.75;;;1.20;;
15393;SDS011;7795;47.986;11.868;2022-10-16T12:20:27;7.15;;;1.50;;
15393;SDS011;7795;47.986;11.868;2022-10-16T12:22:56;1.63;;;1.17;;
15393;SDS011;7795;47.986;11.868;2022-10-16T12:25:25;3.67;;;1.67;;
15393;SDS011;7795;47.986;11.868;2022-10-16T12:28:00;1.67;;;1.13;;
15393;SDS011;7795;47.986;11.868;2022-10-16T12:30:29;2.65;;;1.27;;
15393;SDS011;7795;47.986;11.868;2022-10-16T12:32:57;2.67;;;1.40;;
15393;SDS011;7795;47.986;11.868;2022-10-16T12:35:25;2.15;;;1.20;;
15393;SDS011;7795;47.986;11.868;2022-10-16T12:38:03;4.65;;;2.45;;
15393;SDS011;7795;47.986;11.868;2022-10-16T12:40:32;3.13;;;1.42;;
15393;SDS011;7795;47.986;11.868;2022-10-16T12:43:10;2.83;;;1.17;;
15393;SDS011;7795;47.986;11.868;2022-10-16T12:45:38;2.22;;;0.90;;
15393;SDS011;7795;47.986;11.868;2022-10-16T12:48:04;2.05;;;0.90;;
15393;SDS011;7795;47.986;11.868;2022-10-16T12:50:44;2.47;;;1.30;;
15393;SDS011;7795;47.986;11.868;2022-10-16T12:53:17;2.17;;;1.25;;
15393;SDS011;7795;47.986;11.868;2022-10-16T12:55:47;1.92;;;1.20;;
15393;SDS011;7795;47.986;11.868;2022-10-16T12:58:32;1.45;;;1.17;;
15393;SDS011;7795;47.986;11.868;2022-10-16T13:01:21;1.27;;;1.13;;
15393;SDS011;7795;47.986;11.868;2022-10-16T13:04:03;2.63;;;1.25;;
15393;SDS011;7795;47.986;11.868;2022-10-16T13:07:18;1.92;;;0.90;;
15393;SDS011;7795;47.986;11.868;2022-10-16T13:10:02;2.20;;;1.10;;
15393;SDS011;7795;47.986;11.868;2022-10-16T13:12:44;1.50;;;1.00;;
15393;SDS011;7795;47.986;11.868;2022-10-16T13:15:25;2.25;;;1.23;;
15393;SDS011;7795;47.986;11.868;2022-10-16T13:18:02;1.67;;;0.90;;
15393;SDS011;7795;47.986;11.868;2022-10-16T13:20:40;0.82;;;0.82;;
15393;SDS011;7795;47.986;11.868;2022-10-16T13:23:25;2.25;;;0.90;;
15393;SDS011;7795;47.986;11.868;2022-10-16T13:26:00;1.25;;;0.82;;
15393;SDS011;7795;47.986;11.868;2022-10-16T13:28:34;2.13;;;1.10;;
15393;SDS011;7795;47.986;11.868;2022-10-16T13:31:02;0.95;;;0.80;;
15393;SDS011;7795;47.986;11.868;2022-10-16T13:33:32;1.20;;;0.90;;
15393;SDS011;7795;47.986;11.868;2022-10-16T13:36:00;1.33;;;0.70;;
15393;SDS011;7795;47.986;11.868;2022-10-16T13:38:27;1.50;;;0.50;;
15393;SDS011;7795;47.986;11.868;2022-10-16T13:40:57;0.77;;;0.68;;
15393;SDS011;7795;47.986;11.868;2022-10-16T13:43:27;1.25;;;0.50;;
15393;SDS011;7795;47.986;11.868;2022-10-16T13:45:57;1.15;;;0.50;;
15393;SDS011;7795;47.986;11.868;2022-10-16T13:48:25;1.55;;;0.70;;
15393;SDS011;7795;47.986;11.868;2022-10-16T13:51:03;1.10;;;0.90;;
15393;SDS011;7795;47.986;11.868;2022-10-16T13:53:30;1.52;;;1.00;;
15393;SDS011;7795;47.986;11.868;2022-10-16T13:55:57;3.65;;;1.05;;
15393;SDS011;7795;47.986;11.868;2022-10-16T13:58:25;1.02;;;0.93;;
15393;SDS011;7795;47.986;11.868;2022-10-16T14:00:55;1.58;;;1.00;;
15393;SDS011;7795;47.986;11.868;2022-10-16T14:03:23;1.30;;;1.20;;
15393;SDS011;7795;47.986;11.868;2022-10-16T14:05:50;6.63;;;1.10;;
15393;SDS011;7795;47.986;11.868;2022-10-16T14:08:19;2.92;;;1.25;;
15393;SDS011;7795;47.986;11.868;2022-10-16T14:10:47;2.17;;;1.20;;
15393;SDS011;7795;47.986;11.868;2022-10-16T14:13:15;1.98;;;1.00;;
15393;SDS011;7795;47.986;11.868;2022-10-16T14:15:45;1.20;;;1.00;;
15393;SDS011;7795;47.986;11.868;2022-10-16T14:18:14;1.70;;;1.10;;
15393;SDS011;7795;47.986;11.868;2022-10-16T14:20:44;1.10;;;0.90;;
15393;SDS011;7795;47.986;11.868;2022-10-16T14:23:20;3.70;;;1.10;;
15393;SDS011;7795;47.986;11.868;2022-10-16T14:25:48;1.35;;;0.98;;
15393;SDS011;7795;47.986;11.868;2022-10-16T14:28:15;1.88;;;1.02;;
15393;SDS011;7795;47.986;11.868;2022-10-16T14:30:48;1.15;;;1.00;;
15393;SDS011;7795;47.986;11.868;2022-10-16T14:33:20;4.63;;;1.88;;
15393;SDS011;7795;47.986;11.868;2022-10-16T14:35:56;4.00;;;1.20;;
15393;SDS011;7795;47.986;11.868;2022-10-16T14:38:27;1.23;;;0.90;;
15393;SDS011;7795;47.986;11.868;2022-10-16T14:40:54;2.10;;;1.13;;
15393;SDS011;7795;47.986;11.868;2022-10-16T14:43:25;8.40;;;1.30;;
15393;SDS011;7795;47.986;11.868;2022-10-16T14:45:56;1.25;;;1.10;;
15393;SDS011;7795;47.986;11.868;2022-10-16T14:48:22;1.02;;;1.02;;
15393;SDS011;7795;47.986;11.868;2022-10-16T14:50:49;1.80;;;0.90;;
15393;SDS011;7795;47.986;11.868;2022-10-16T14:53:15;2.08;;;0.90;;
15393;SDS011;7795;47.986;11.868;2022-10-16T14:55:42;2.13;;;1.20;;